Time;durP1;ratioP1;P1;durP2;ratioP2;P2;SDS_P1;SDS_P2;PMS_P1;PMS_P2;Temp;Humidity;BMP_temperature;BMP_pressure;BME280_temperature;BME280_humidity;BME280_pressure;Samples;Min_cycle;Max_cycle;Signal;HPM_P1;HPM_P2
2023/07/30 00:00:03;;;;;;;7.57;2.53;;;;;;;;;;5032379;28;20073;-83
2023/07/30 00:02:31;;;;;;;13.07;3.67;;;;;;;;;;5042979;28;20040;-83
2023/07/30 00:04:57;;;;;;;6.32;3.00;;;;;;;;;;5049138;28;20049;-83
2023/07/30 00:07:24;;;;;;;10.50;2.95;;;;;;;;;;5049408;28;20491;-83
2023/07/30 00:09:52;;;;;;;8.32;2.97;;;;;;;;;;5033423;28;20131;-83
2023/07/30 00:12:46;;;;;;;8.00;3.00;;;;;;;;;;5008151;28;20038;-83
2023/07/30 00:15:51;;;;;;;;;;;;;;;;;;;;;
2023/07/30 00:18:23;;;;;;;10.65;2.75;;;;;;;;;;5002164;28;20117;-83
2023/07/30 00:21:18;;;;;;;7.93;3.07;;;;;;;;;;4991280;28;20038;-83
2023/07/30 00:23:53;;;;;;;7.85;3.67;;;;;;;;;;4986539;28;20081;-83
2023/07/30 00:26:19;;;;;;;4.47;1.70;;;;;;;;;;4991810;28;20484;-84
2023/07/30 00:28:48;;;;;;;6.05;1.67;;;;;;;;;;4991630;28;20042;-83
2023/07/30 00:31:17;;;;;;;3.72;1.65;;;;;;;;;;4989504;28;20125;-83
2023/07/30 00:33:49;;;;;;;4.60;1.90;;;;;;;;;;4982679;28;20548;-83
2023/07/30 00:36:18;;;;;;;3.42;1.83;;;;;;;;;;4971964;28;20450;-83
2023/07/30 00:38:47;;;;;;;8.05;2.75;;;;;;;;;;4990200;28;20073;-83
2023/07/30 00:41:16;;;;;;;7.05;2.60;;;;;;;;;;5008555;28;20072;-83
2023/07/30 00:43:45;;;;;;;7.22;2.55;;;;;;;;;;5035255;28;20051;-82
2023/07/30 00:46:14;;;;;;;5.72;2.60;;;;;;;;;;5049907;28;20055;-83
2023/07/30 00:48:43;;;;;;;6.05;2.28;;;;;;;;;;5046858;28;20067;-83
2023/07/30 00:51:09;;;;;;;12.07;2.30;;;;;;;;;;5051112;28;20060;-83
2023/07/30 00:53:37;;;;;;;6.35;2.60;;;;;;;;;;5050186;28;20460;-83
2023/07/30 00:56:14;;;;;;;5.32;2.58;;;;;;;;;;5032652;28;20036;-83
2023/07/30 01:02:07;;;;;;;5.13;2.20;;;;;;;;;;5046740;28;20644;-83
2023/07/30 01:04:39;;;;;;;6.70;2.95;;;;;;;;;;5048909;28;20056;-83
2023/07/30 01:10:07;;;;;;;4.55;2.22;;;;;;;;;;4965134;28;19918;-83
2023/07/30 01:24:48;;;;;;;7.13;2.22;;;;;;;;;;4935834;28;20806;-83
2023/07/30 01:27:35;;;;;;;5.35;2.20;;;;;;;;;;4988539;28;20085;-83
2023/07/30 01:33:23;;;;;;;6.30;2.30;;;;;;;;;;5000016;28;20495;-83
2023/07/30 01:35:58;;;;;;;8.63;2.95;;;;;;;;;;4990049;28;20091;-83
2023/07/30 01:38:25;;;;;;;7.72;2.15;;;;;;;;;;5023547;28;20098;-83
2023/07/30 01:40:54;;;;;;;8.10;2.50;;;;;;;;;;5030514;28;20037;-83
2023/07/30 01:43:32;;;;;;;5.18;2.78;;;;;;;;;;5048584;28;20032;-83
2023/07/30 01:45:58;;;;;;;6.05;2.22;;;;;;;;;;5048381;28;20040;-84
2023/07/30 01:48:25;;;;;;;10.00;2.88;;;;;;;;;;5031259;28;20041;-84
2023/07/30 01:50:51;;;;;;;5.90;2.55;;;;;;;;;;5028328;28;20108;-84
2023/07/30 01:53:17;;;;;;;10.45;2.75;;;;;;;;;;5035050;28;20033;-83
2023/07/30 01:55:45;;;;;;;6.80;2.13;;;;;;;;;;5040228;28;20116;-83
2023/07/30 01:58:11;;;;;;;5.60;2.13;;;;;;;;;;5032461;28;20044;-83
2023/07/30 02:00:37;;;;;;;8.45;2.60;;;;;;;;;;5044339;28;20105;-83
2023/07/30 02:03:03;;;;;;;14.18;3.30;;;;;;;;;;5047166;28;20123;-83
2023/07/30 02:05:29;;;;;;;5.85;2.70;;;;;;;;;;5047526;28;20064;-83
2023/07/30 02:07:55;;;;;;;7.13;2.70;;;;;;;;;;5049710;28;20028;-83
2023/07/30 02:10:21;;;;;;;5.90;2.42;;;;;;;;;;5034871;28;20411;-83
2023/07/30 02:12:47;;;;;;;5.13;2.03;;;;;;;;;;5049588;28;20033;-84
2023/07/30 02:15:13;;;;;;;7.53;2.50;;;;;;;;;;5030970;28;20067;-83
2023/07/30 02:17:39;;;;;;;5.38;2.13;;;;;;;;;;5031536;28;20127;-83
2023/07/30 02:20:06;;;;;;;8.45;3.63;;;;;;;;;;5030527;28;20045;-83
2023/07/30 02:22:32;;;;;;;7.95;4.28;;;;;;;;;;5028656;28;20040;-82
2023/07/30 02:24:58;;;;;;;7.88;4.18;;;;;;;;;;5030425;28;20029;-83
2023/07/30 02:27:24;;;;;;;10.90;4.10;;;;;;;;;;5052460;28;20444;-83
2023/07/30 02:29:50;;;;;;;4.78;2.67;;;;;;;;;;5035086;28;20061;-83
2023/07/30 02:32:16;;;;;;;8.75;2.53;;;;;;;;;;5034702;28;20460;-84
2023/07/30 02:34:42;;;;;;;10.25;2.75;;;;;;;;;;5052475;28;20043;-83
2023/07/30 02:37:08;;;;;;;5.13;2.10;;;;;;;;;;5034270;28;20037;-83
2023/07/30 02:39:34;;;;;;;15.68;2.95;;;;;;;;;;5033011;28;20044;-83
2023/07/30 02:42:00;;;;;;;10.52;2.78;;;;;;;;;;5051539;28;20654;-82
2023/07/30 02:44:26;;;;;;;7.88;2.85;;;;;;;;;;5034586;28;20037;-83
2023/07/30 02:46:52;;;;;;;10.40;2.75;;;;;;;;;;5028395;28;20029;-83
2023/07/30 02:49:18;;;;;;;7.35;2.50;;;;;;;;;;5035112;28;20086;-84
2023/07/30 02:51:48;;;;;;;7.13;2.97;;;;;;;;;;5034612;28;20040;-83
2023/07/30 02:54:15;;;;;;;6.07;2.20;;;;;;;;;;5035388;28;20033;-84
2023/07/30 02:56:41;;;;;;;6.57;2.38;;;;;;;;;;5033644;28;20029;-84
2023/07/30 02:59:07;;;;;;;6.07;2.30;;;;;;;;;;5035048;28;20524;-83
2023/07/30 03:01:33;;;;;;;6.80;2.45;;;;;;;;;;5034188;28;20067;-83
2023/07/30 03:03:59;;;;;;;15.73;2.47;;;;;;;;;;5040560;28;20053;-83
2023/07/30 03:06:25;;;;;;;5.60;2.20;;;;;;;;;;5070919;28;20376;-83
2023/07/30 03:08:51;;;;;;;6.50;2.00;;;;;;;;;;5052895;28;20033;-83
2023/07/30 03:11:17;;;;;;;4.47;2.80;;;;;;;;;;5044955;28;20024;-83
2023/07/30 03:13:43;;;;;;;7.05;2.47;;;;;;;;;;5070785;28;20834;-83
2023/07/30 03:16:09;;;;;;;6.00;2.78;;;;;;;;;;5072170;28;20036;-83
2023/07/30 03:18:35;;;;;;;12.20;2.70;;;;;;;;;;5048319;28;20114;-83
2023/07/30 03:21:02;;;;;;;7.47;2.47;;;;;;;;;;5054417;28;20036;-83
2023/07/30 03:23:28;;;;;;;5.50;2.40;;;;;;;;;;5046059;28;20174;-83
2023/07/30 03:25:54;;;;;;;8.82;3.35;;;;;;;;;;5071832;28;20032;-83
2023/07/30 03:28:20;;;;;;;6.03;2.92;;;;;;;;;;5053892;28;20487;-82
2023/07/30 03:30:46;;;;;;;9.98;2.50;;;;;;;;;;5053008;28;20029;-83
2023/07/30 03:33:12;;;;;;;6.63;2.70;;;;;;;;;;5071682;28;20059;-83
2023/07/30 03:35:38;;;;;;;8.55;2.63;;;;;;;;;;5056843;28;20036;-83
2023/07/30 03:38:04;;;;;;;4.00;2.20;;;;;;;;;;5057931;28;20043;-83
2023/07/30 03:40:30;;;;;;;7.75;2.45;;;;;;;;;;5054077;28;20044;-83
2023/07/30 03:42:56;;;;;;;9.80;2.33;;;;;;;;;;5049851;28;20060;-83
2023/07/30 03:45:22;;;;;;;6.60;2.25;;;;;;;;;;5070565;28;20499;-83
2023/07/30 03:47:48;;;;;;;5.63;2.30;;;;;;;;;;5053056;28;20599;-83
2023/07/30 03:50:14;;;;;;;3.80;2.33;;;;;;;;;;5070335;28;20064;-82
2023/07/30 03:52:40;;;;;;;5.97;2.55;;;;;;;;;;5062629;28;20107;-83
2023/07/30 03:55:06;;;;;;;7.05;2.35;;;;;;;;;;5071971;28;20099;-83
2023/07/30 03:57:32;;;;;;;3.78;2.00;;;;;;;;;;5052904;28;20055;-84
2023/07/30 03:59:58;;;;;;;7.88;3.72;;;;;;;;;;5069840;28;20623;-84
2023/07/30 04:02:24;;;;;;;8.20;4.53;;;;;;;;;;5068412;28;20152;-83
2023/07/30 04:04:50;;;;;;;7.78;3.65;;;;;;;;;;5053308;28;20075;-83
2023/07/30 04:07:16;;;;;;;9.32;3.65;;;;;;;;;;5067230;28;20452;-83
2023/07/30 04:09:42;;;;;;;12.15;5.00;;;;;;;;;;5065607;28;20532;-83
2023/07/30 04:12:08;;;;;;;5.93;2.33;;;;;;;;;;5052743;28;20131;-83
2023/07/30 04:14:34;;;;;;;7.70;1.95;;;;;;;;;;5054054;28;20063;-83
2023/07/30 04:17:00;;;;;;;4.55;2.38;;;;;;;;;;5049900;28;20072;-83
2023/07/30 04:19:26;;;;;;;6.00;2.72;;;;;;;;;;5051216;28;20490;-83
2023/07/30 04:21:52;;;;;;;4.55;2.25;;;;;;;;;;5052938;28;20024;-83
2023/07/30 04:24:18;;;;;;;6.43;2.45;;;;;;;;;;5053109;28;20074;-83
2023/07/30 04:26:44;;;;;;;8.45;2.95;;;;;;;;;;5047117;28;20036;-83
2023/07/30 04:29:10;;;;;;;6.00;2.30;;;;;;;;;;5069290;28;20036;-83
2023/07/30 04:31:36;;;;;;;8.68;2.65;;;;;;;;;;5071395;28;20043;-83
2023/07/30 04:34:02;;;;;;;6.03;2.30;;;;;;;;;;5045100;28;20124;-83
2023/07/30 04:36:28;;;;;;;6.63;2.50;;;;;;;;;;5053041;28;20132;-83
2023/07/30 04:38:54;;;;;;;4.78;1.92;;;;;;;;;;5052217;28;20479;-83
2023/07/30 04:41:20;;;;;;;5.55;1.80;;;;;;;;;;5052363;28;20040;-83
2023/07/30 04:43:47;;;;;;;7.22;2.20;;;;;;;;;;5058342;28;20533;-83
2023/07/30 04:46:13;;;;;;;5.28;1.45;;;;;;;;;;5062563;28;20055;-83
2023/07/30 04:48:39;;;;;;;8.77;2.28;;;;;;;;;;5051125;28;20457;-83
2023/07/30 04:51:05;;;;;;;4.15;1.65;;;;;;;;;;5052814;28;20150;-83
2023/07/30 04:53:30;;;;;;;4.82;2.25;;;;;;;;;;5052033;28;20148;-83
2023/07/30 04:55:57;;;;;;;6.75;1.88;;;;;;;;;;5052522;28;20032;-83
2023/07/30 04:58:23;;;;;;;3.67;2.00;;;;;;;;;;5085372;28;20058;-83
2023/07/30 05:00:49;;;;;;;5.28;1.98;;;;;;;;;;5061562;28;20032;-83
2023/07/30 05:03:15;;;;;;;7.15;2.53;;;;;;;;;;5051379;28;20064;-83
2023/07/30 05:05:41;;;;;;;12.25;3.03;;;;;;;;;;5062886;28;20033;-83
2023/07/30 05:08:08;;;;;;;7.13;2.50;;;;;;;;;;5061502;28;20032;-83
2023/07/30 05:10:34;;;;;;;6.68;2.45;;;;;;;;;;5052438;28;20054;-83
2023/07/30 05:13:00;;;;;;;8.48;2.20;;;;;;;;;;5051618;28;20130;-83
2023/07/30 05:15:26;;;;;;;6.72;1.85;;;;;;;;;;5048953;28;20033;-83
2023/07/30 05:17:52;;;;;;;7.05;2.05;;;;;;;;;;5059911;28;20035;-83
2023/07/30 05:20:18;;;;;;;7.10;2.20;;;;;;;;;;5051785;28;20040;-82
2023/07/30 05:22:44;;;;;;;4.22;2.15;;;;;;;;;;5070348;28;20024;-82
2023/07/30 05:25:10;;;;;;;8.45;2.45;;;;;;;;;;5069282;28;20098;-83
2023/07/30 05:27:36;;;;;;;7.32;2.42;;;;;;;;;;5057580;28;20070;-83
2023/07/30 05:30:02;;;;;;;5.55;2.67;;;;;;;;;;5051340;28;20720;-82
2023/07/30 05:32:28;;;;;;;8.65;2.92;;;;;;;;;;5051985;28;20124;-83
2023/07/30 05:34:54;;;;;;;8.48;2.45;;;;;;;;;;5069116;28;20062;-82
2023/07/30 05:37:20;;;;;;;5.07;2.67;;;;;;;;;;5041918;28;20032;-83
2023/07/30 05:39:46;;;;;;;10.00;2.90;;;;;;;;;;5066940;28;20407;-83
2023/07/30 05:42:12;;;;;;;6.82;2.17;;;;;;;;;;5050842;28;20047;-83
2023/07/30 05:44:38;;;;;;;7.72;2.40;;;;;;;;;;5051290;28;20127;-83
2023/07/30 05:47:04;;;;;;;4.70;2.00;;;;;;;;;;5051225;28;20065;-83
2023/07/30 05:49:30;;;;;;;6.60;2.72;;;;;;;;;;5070174;28;20044;-83
2023/07/30 05:51:57;;;;;;;5.13;2.50;;;;;;;;;;5051677;28;20417;-83
2023/07/30 05:54:23;;;;;;;5.93;2.35;;;;;;;;;;5051683;28;20032;-83
2023/07/30 05:56:48;;;;;;;8.05;2.78;;;;;;;;;;5050634;28;20024;-83
2023/07/30 05:59:15;;;;;;;5.50;2.80;;;;;;;;;;5041048;28;20081;-83
2023/07/30 06:01:41;;;;;;;6.57;3.13;;;;;;;;;;5065143;28;20028;-82
2023/07/30 06:04:07;;;;;;;7.20;2.42;;;;;;;;;;5052914;28;20056;-83
2023/07/30 06:06:33;;;;;;;8.80;2.83;;;;;;;;;;5067611;28;20043;-83
2023/07/30 06:08:59;;;;;;;9.95;2.72;;;;;;;;;;5068164;28;20033;-83
2023/07/30 06:11:25;;;;;;;5.93;2.03;;;;;;;;;;5066305;28;20028;-83
2023/07/30 06:13:51;;;;;;;7.18;2.50;;;;;;;;;;5051283;28;20032;-82
2023/07/30 06:16:19;;;;;;;7.25;2.58;;;;;;;;;;5049670;28;20034;-83
2023/07/30 06:18:45;;;;;;;5.72;2.40;;;;;;;;;;5057474;28;20138;-83
2023/07/30 06:21:11;;;;;;;9.68;2.65;;;;;;;;;;5069510;28;20036;-82
2023/07/30 06:23:37;;;;;;;7.18;2.60;;;;;;;;;;5050847;28;20403;-82
2023/07/30 06:26:03;;;;;;;10.18;2.95;;;;;;;;;;5050563;28;20028;-83
2023/07/30 06:28:29;;;;;;;9.75;2.70;;;;;;;;;;5069005;28;20340;-83
2023/07/30 06:30:55;;;;;;;5.53;2.13;;;;;;;;;;5046232;28;20119;-83
2023/07/30 06:33:21;;;;;;;3.92;1.98;;;;;;;;;;5050910;28;20375;-83
2023/07/30 06:35:47;;;;;;;5.50;2.13;;;;;;;;;;5040247;28;20033;-83
2023/07/30 06:38:13;;;;;;;4.72;2.03;;;;;;;;;;5049586;28;20506;-83
2023/07/30 06:40:39;;;;;;;5.25;2.20;;;;;;;;;;5068560;28;20025;-83
2023/07/30 06:43:05;;;;;;;3.28;2.08;;;;;;;;;;5069266;28;20082;-83
2023/07/30 06:45:31;;;;;;;5.45;2.35;;;;;;;;;;5068710;28;20271;-83
2023/07/30 06:47:57;;;;;;;7.57;2.33;;;;;;;;;;5050131;28;20852;-82
2023/07/30 06:50:23;;;;;;;7.10;2.45;;;;;;;;;;5068885;28;20029;-82
2023/07/30 06:52:49;;;;;;;6.32;1.90;;;;;;;;;;5046294;28;20025;-83
2023/07/30 06:55:15;;;;;;;3.45;1.60;;;;;;;;;;5051015;28;20040;-83
2023/07/30 06:57:41;;;;;;;5.47;1.98;;;;;;;;;;5067700;28;20071;-83
2023/07/30 07:00:07;;;;;;;3.55;1.90;;;;;;;;;;5066854;28;20032;-83
2023/07/30 07:02:34;;;;;;;6.85;2.38;;;;;;;;;;5050870;28;20123;-83
2023/07/30 07:05:00;;;;;;;5.57;1.63;;;;;;;;;;5044477;28;20056;-83
2023/07/30 07:07:26;;;;;;;5.57;1.98;;;;;;;;;;5032430;28;20029;-83
2023/07/30 07:09:52;;;;;;;6.47;1.55;;;;;;;;;;5037134;28;20033;-83
2023/07/30 07:12:18;;;;;;;4.90;1.85;;;;;;;;;;5057367;28;20021;-83
2023/07/30 07:14:44;;;;;;;5.88;2.00;;;;;;;;;;5054705;28;20037;-84
2023/07/30 07:17:10;;;;;;;4.78;2.17;;;;;;;;;;5051181;28;20033;-84
2023/07/30 07:19:36;;;;;;;4.50;1.60;;;;;;;;;;5046833;28;20748;-84
2023/07/30 07:22:05;;;;;;;5.63;2.05;;;;;;;;;;5052257;28;20136;-83
2023/07/30 07:24:31;;;;;;;5.80;1.50;;;;;;;;;;5052299;28;20076;-84
2023/07/30 07:26:57;;;;;;;7.93;1.80;;;;;;;;;;5049772;28;20099;-84
2023/07/30 07:29:23;;;;;;;4.57;1.77;;;;;;;;;;5044959;28;20086;-84
2023/07/30 07:31:49;;;;;;;3.85;1.60;;;;;;;;;;5052054;28;20029;-84
2023/07/30 07:34:15;;;;;;;5.97;1.55;;;;;;;;;;5052940;28;20554;-83
2023/07/30 07:36:41;;;;;;;4.63;1.30;;;;;;;;;;5048099;28;20037;-83
2023/07/30 07:39:07;;;;;;;3.85;1.58;;;;;;;;;;5053195;28;20799;-84
2023/07/30 07:41:33;;;;;;;5.47;1.45;;;;;;;;;;5052867;28;20112;-84
2023/07/30 07:43:59;;;;;;;4.10;1.90;;;;;;;;;;5039837;28;20115;-83
2023/07/30 07:46:27;;;;;;;4.80;2.00;;;;;;;;;;5048509;28;20116;-84
2023/07/30 07:48:53;;;;;;;5.28;1.90;;;;;;;;;;5050198;28;20029;-83
2023/07/30 07:51:19;;;;;;;4.03;1.40;;;;;;;;;;5043924;28;20048;-84
2023/07/30 07:53:45;;;;;;;2.97;1.55;;;;;;;;;;5050218;28;20025;-84
2023/07/30 07:56:11;;;;;;;2.70;1.40;;;;;;;;;;5051943;28;20083;-83
2023/07/30 07:58:37;;;;;;;4.38;1.90;;;;;;;;;;5052878;28;20163;-83
2023/07/30 08:01:03;;;;;;;5.85;1.30;;;;;;;;;;5062312;28;20041;-83
2023/07/30 08:03:29;;;;;;;4.20;1.50;;;;;;;;;;5049818;28;20059;-83
2023/07/30 08:05:55;;;;;;;5.68;1.65;;;;;;;;;;5051092;28;20210;-84
2023/07/30 08:08:21;;;;;;;5.70;1.60;;;;;;;;;;5069870;28;20171;-84
2023/07/30 08:10:47;;;;;;;6.93;1.50;;;;;;;;;;5054455;28;20024;-85
2023/07/30 08:13:14;;;;;;;4.75;1.83;;;;;;;;;;5068312;28;20840;-85
2023/07/30 08:15:40;;;;;;;3.80;1.52;;;;;;;;;;5052450;28;20067;-83
2023/07/30 08:18:06;;;;;;;3.70;1.85;;;;;;;;;;5073590;28;20476;-85
2023/07/30 08:33:40;;;;;;;;;;;;;;;;;;;;;
2023/07/30 08:39:24;;;;;;;7.72;2.78;;;;;;;;;;5094009;23;20879;-85
2023/07/30 08:42:24;;;;;;;6.35;2.20;;;;;;;;;;5439776;23;20045;-84
2023/07/30 08:48:27;;;;;;;4.45;2.22;;;;;;;;;;5068514;28;20071;-82
2023/07/30 08:51:11;;;;;;;4.85;2.20;;;;;;;;;;5056503;28;20455;-82
2023/07/30 08:54:00;;;;;;;4.47;1.73;;;;;;;;;;5050373;28;20066;-82
2023/07/30 08:56:26;;;;;;;3.25;1.67;;;;;;;;;;5048964;28;20062;-81
2023/07/30 08:59:06;;;;;;;3.35;1.88;;;;;;;;;;5069751;28;20473;-80
2023/07/30 09:01:39;;;;;;;4.72;1.90;;;;;;;;;;5042540;28;20132;-82
2023/07/30 09:04:40;;;;;;;5.40;2.22;;;;;;;;;;5066586;28;20040;-82
2023/07/30 09:07:27;;;;;;;5.60;2.17;;;;;;;;;;5051052;28;20085;-82
2023/07/30 09:10:07;;;;;;;4.10;2.33;;;;;;;;;;5097094;23;20833;-83
2023/07/30 09:13:04;;;;;;;4.40;2.40;;;;;;;;;;5062462;28;20044;-83
2023/07/30 09:18:24;;;;;;;4.45;2.53;;;;;;;;;;5205589;23;20088;-81
2023/07/30 09:20:59;;;;;;;3.90;2.10;;;;;;;;;;5042683;28;20415;-82
2023/07/30 09:26:48;;;;;;;3.40;1.80;;;;;;;;;;5005570;28;20042;-82
2023/07/30 09:32:10;;;;;;;5.93;2.28;;;;;;;;;;5027491;28;20100;-82
2023/07/30 09:56:07;;;;;;;3.38;1.80;;;;;;;;;;5078323;23;20026;-82
2023/07/30 10:04:52;;;;;;;2.83;1.40;;;;;;;;;;4916698;29;20559;-82
2023/07/30 10:50:18;;;;;;;4.22;2.28;;;;;;;;;;5005576;23;20101;-82
2023/07/30 11:01:18;;;;;;;3.80;1.85;;;;;;;;;;5065901;23;20119;-84
2023/07/30 11:10:03;;;;;;;4.53;1.40;;;;;;;;;;4951920;28;20047;-83
2023/07/30 11:12:29;;;;;;;3.38;1.40;;;;;;;;;;4937363;29;20067;-82
2023/07/30 11:50:16;;;;;;;3.10;1.58;;;;;;;;;;4946433;29;20388;-90
2023/07/30 11:53:10;;;;;;;2.92;1.55;;;;;;;;;;5012484;23;20114;-91
2023/07/30 12:10:19;;;;;;;5.55;1.60;;;;;;;;;;3843775;23;20062;-83
2023/07/30 12:13:08;;;;;;;5.00;1.60;;;;;;;;;;4972928;28;20035;-82
2023/07/30 12:43:56;;;;;;;2.70;1.40;;;;;;;;;;4858165;29;20070;-82
2023/07/30 12:46:48;;;;;;;6.32;1.75;;;;;;;;;;4925129;29;20043;-83
2023/07/30 12:49:27;;;;;;;5.13;1.33;;;;;;;;;;4923613;29;20048;-83
2023/07/30 13:01:47;;;;;;;9.02;1.88;;;;;;;;;;4910408;29;20079;-84
2023/07/30 13:10:12;;;;;;;3.10;1.30;;;;;;;;;;4990913;23;20431;-83
2023/07/30 13:48:18;;;;;;;7.18;1.42;;;;;;;;;;4985442;23;20625;-85
2023/07/30 14:18:16;;;;;;;;;;;;;;;;;;;;;
2023/07/30 14:41:05;;;;;;;4.00;1.17;;;;;;;;;;4966135;28;19924;-82
2023/07/30 14:53:52;;;;;;;;;;;;;;;;;;;;;
2023/07/30 14:59:53;;;;;;;2.78;1.08;;;;;;;;;;4821367;28;20049;-84
2023/07/30 15:13:52;;;;;;;5.28;1.05;;;;;;;;;;4953635;28;20070;-82
2023/07/30 15:16:54;;;;;;;;;;;;;;;;;;;;;
2023/07/30 15:22:28;;;;;;;2.47;1.05;;;;;;;;;;4955224;23;19926;-82
2023/07/30 15:28:14;;;;;;;3.58;1.15;;;;;;;;;;4924712;29;20102;-82
2023/07/30 15:52:08;;;;;;;2.97;1.10;;;;;;;;;;541849;26;20457;-81
2023/07/30 15:55:20;;;;;;;;;;;;;;;;;;;;;
2023/07/30 15:59:08;;;;;;;2.90;0.90;;;;;;;;;;4946835;29;20041;-81
2023/07/30 16:10:50;;;;;;;5.45;1.00;;;;;;;;;;4964572;28;21142;-82
2023/07/30 16:17:41;;;;;;;2.38;1.05;;;;;;;;;;4968390;28;20074;-81
2023/07/30 17:32:09;;;;;;;4.70;0.93;;;;;;;;;;5088128;23;20092;-82
2023/07/30 17:38:06;;;;;;;3.40;0.90;;;;;;;;;;4972562;28;20050;-82
2023/07/30 17:43:55;;;;;;;1.88;0.85;;;;;;;;;;5060797;23;20137;-83
2023/07/30 17:47:25;;;;;;;;;;;;;;;;;;;;;
2023/07/30 17:49:51;;;;;;;2.90;1.20;;;;;;;;;;5002931;28;20412;-81
2023/07/30 17:52:17;;;;;;;4.72;1.02;;;;;;;;;;4990060;28;20041;-81
2023/07/30 17:54:43;;;;;;;6.95;1.15;;;;;;;;;;5010075;28;20038;-81
2023/07/30 17:57:14;;;;;;;3.17;1.10;;;;;;;;;;5008485;28;20060;-82
2023/07/30 18:22:00;;;;;;;8.27;4.35;;;;;;;;;;4999981;23;20053;-81
2023/07/30 18:24:39;;;;;;;20.73;8.38;;;;;;;;;;4990568;28;20426;-81
2023/07/30 18:50:09;;;;;;;5.07;1.33;;;;;;;;;;5125574;23;20099;-82
2023/07/30 18:53:27;;;;;;;3.95;1.23;;;;;;;;;;4986619;28;20046;-82
2023/07/30 18:56:01;;;;;;;3.92;1.13;;;;;;;;;;4960889;28;20057;-81
2023/07/30 19:01:21;;;;;;;3.40;0.88;;;;;;;;;;4976094;28;20042;-84
2023/07/30 19:03:54;;;;;;;2.78;1.20;;;;;;;;;;4957423;28;20043;-81
2023/07/30 19:06:55;;;;;;;;;;;;;;;;;;;;;
2023/07/30 19:16:59;;;;;;;3.30;1.20;;;;;;;;;;5011516;28;20050;-84
2023/07/30 19:19:27;;;;;;;6.30;1.55;;;;;;;;;;4984694;28;20412;-83
2023/07/30 19:21:56;;;;;;;3.58;1.40;;;;;;;;;;5012669;28;20060;-82
2023/07/30 19:24:25;;;;;;;5.97;1.77;;;;;;;;;;4993039;28;20611;-86
2023/07/30 19:27:12;;;;;;;3.42;1.30;;;;;;;;;;5012996;28;20052;-87
2023/07/30 19:29:43;;;;;;;4.15;1.35;;;;;;;;;;4993190;28;20034;-87
2023/07/30 19:32:25;;;;;;;6.68;1.10;;;;;;;;;;4995326;28;20826;-88
2023/07/30 19:35:13;;;;;;;3.88;1.33;;;;;;;;;;4996458;28;20411;-91
2023/07/30 19:41:05;;;;;;;3.88;1.20;;;;;;;;;;4961682;28;20093;-85
2023/07/30 19:43:36;;;;;;;;;;;;;;;;;;4962925;28;20090;-88
2023/07/30 19:46:08;;;;;;;3.55;1.55;;;;;;;;;;5012446;28;19994;-88
2023/07/30 19:48:42;;;;;;;4.45;1.52;;;;;;;;;;4994227;28;20089;-88
2023/07/30 19:51:34;;;;;;;4.15;1.25;;;;;;;;;;4972770;28;20038;-89
2023/07/30 19:54:09;;;;;;;4.60;1.63;;;;;;;;;;4962682;28;20039;-87
2023/07/30 19:56:41;;;;;;;3.75;1.50;;;;;;;;;;4983008;28;20046;-87
2023/07/30 19:59:20;;;;;;;4.72;1.50;;;;;;;;;;4987801;28;20149;-87
2023/07/30 20:02:17;;;;;;;7.22;1.50;;;;;;;;;;4995125;28;20136;-87
2023/07/30 20:04:48;;;;;;;3.63;1.60;;;;;;;;;;4994965;28;20409;-88
2023/07/30 20:10:30;;;;;;;;;;;;;;;;;;;;;
2023/07/30 20:13:29;;;;;;;7.63;1.80;;;;;;;;;;5005584;28;20571;-87
2023/07/30 20:26:57;;;;;;;5.22;1.45;;;;;;;;;;5008663;28;20045;-88
2023/07/30 20:29:43;;;;;;;3.67;1.02;;;;;;;;;;4987627;28;20539;-87
2023/07/30 20:32:09;;;;;;;4.38;1.30;;;;;;;;;;4994014;28;20066;-86
2023/07/30 20:34:38;;;;;;;5.18;1.75;;;;;;;;;;4993442;28;20034;-88
2023/07/30 20:40:40;;;;;;;2.70;1.30;;;;;;;;;;4877412;29;20569;-87
2023/07/30 20:46:31;;;;;;;4.57;1.42;;;;;;;;;;5115808;23;20077;-88
